sensor_id;sensor_type;location;lat;lon;timestamp;pressure;altitude;pressure_sealevel;temperature;humidity
5413;BME280;2729;50.056;8.678;2023-03-26T00:01:16;99662.19;;;10.82;100.00
5413;BME280;2729;50.056;8.678;2023-03-26T00:03:43;99660.75;;;10.99;100.00
5413;BME280;2729;50.056;8.678;2023-03-26T00:06:13;99661.72;;;10.96;100.00
5413;BME280;2729;50.056;8.678;2023-03-26T00:08:42;99661.53;;;10.77;100.00
5413;BME280;2729;50.056;8.678;2023-03-26T00:11:09;99666.88;;;10.98;100.00
5413;BME280;2729;50.056;8.678;2023-03-26T00:13:36;99664.97;;;10.78;100.00
5413;BME280;2729;50.056;8.678;2023-03-26T00:16:02;99664.81;;;10.82;100.00
5413;BME280;2729;50.056;8.678;2023-03-26T00:18:29;99664.41;;;10.70;100.00
5413;BME280;2729;50.056;8.678;2023-03-26T00:20:58;99671.38;;;10.69;100.00
5413;BME280;2729;50.056;8.678;2023-03-26T00:23:25;99669.13;;;10.83;100.00
5413;BME280;2729;50.056;8.678;2023-03-26T00:25:51;99663.31;;;10.75;100.00
5413;BME280;2729;50.056;8.678;2023-03-26T00:28:18;99656.84;;;10.62;100.00
5413;BME280;2729;50.056;8.678;2023-03-26T00:30:56;99663.03;;;10.59;100.00
5413;BME280;2729;50.056;8.678;2023-03-26T00:33:22;99670.56;;;10.67;100.00
5413;BME280;2729;50.056;8.678;2023-03-26T00:35:59;99671.97;;;10.52;100.00
5413;BME280;2729;50.056;8.678;2023-03-26T00:38:27;99669.09;;;10.60;100.00
5413;BME280;2729;50.056;8.678;2023-03-26T00:40:54;99674.19;;;10.63;100.00
5413;BME280;2729;50.056;8.678;2023-03-26T00:43:21;99666.69;;;10.54;100.00
5413;BME280;2729;50.056;8.678;2023-03-26T00:45:51;99670.09;;;10.56;100.00
5413;BME280;2729;50.056;8.678;2023-03-26T00:48:17;99670.53;;;10.44;100.00
5413;BME280;2729;50.056;8.678;2023-03-26T00:50:45;99678.41;;;10.42;100.00
5413;BME280;2729;50.056;8.678;2023-03-26T00:53:12;99671.97;;;10.52;100.00
5413;BME280;2729;50.056;8.678;2023-03-26T00:55:42;99671.66;;;10.61;100.00
5413;BME280;2729;50.056;8.678;2023-03-26T00:58:10;99664.50;;;10.67;100.00
5413;BME280;2729;50.056;8.678;2023-03-26T01:00:42;99672.44;;;10.63;100.00
5413;BME280;2729;50.056;8.678;2023-03-26T01:03:13;99661.09;;;10.65;100.00
5413;BME280;2729;50.056;8.678;2023-03-26T01:05:48;99658.06;;;10.52;100.00
5413;BME280;2729;50.056;8.678;2023-03-26T01:08:33;99653.53;;;10.57;100.00
5413;BME280;2729;50.056;8.678;2023-03-26T01:11:04;99656.38;;;10.51;100.00
5413;BME280;2729;50.056;8.678;2023-03-26T01:13:35;99650.69;;;10.38;100.00
5413;BME280;2729;50.056;8.678;2023-03-26T01:16:06;99646.03;;;10.48;100.00
5413;BME280;2729;50.056;8.678;2023-03-26T01:18:36;99648.03;;;10.40;100.00
5413;BME280;2729;50.056;8.678;2023-03-26T01:21:07;99632.63;;;10.32;100.00
5413;BME280;2729;50.056;8.678;2023-03-26T01:23:54;99634.13;;;10.39;100.00
5413;BME280;2729;50.056;8.678;2023-03-26T01:28:55;99629.31;;;10.27;100.00
5413;BME280;2729;50.056;8.678;2023-03-26T01:31:33;99617.09;;;10.29;100.00
5413;BME280;2729;50.056;8.678;2023-03-26T01:34:10;99614.28;;;10.35;100.00
5413;BME280;2729;50.056;8.678;2023-03-26T01:36:54;99612.72;;;10.03;100.00
5413;BME280;2729;50.056;8.678;2023-03-26T01:40:15;99613.56;;;10.30;100.00
5413;BME280;2729;50.056;8.678;2023-03-26T01:42:28;99613.09;;;10.17;100.00
5413;BME280;2729;50.056;8.678;2023-03-26T01:45:09;99603.25;;;10.27;100.00
5413;BME280;2729;50.056;8.678;2023-03-26T01:47:36;99605.97;;;10.24;100.00
5413;BME280;2729;50.056;8.678;2023-03-26T01:50:05;99601.59;;;10.24;100.00
5413;BME280;2729;50.056;8.678;2023-03-26T01:52:31;99599.53;;;10.08;100.00
5413;BME280;2729;50.056;8.678;2023-03-26T01:54:57;99598.56;;;10.10;100.00
5413;BME280;2729;50.056;8.678;2023-03-26T01:57:37;99592.91;;;10.24;100.00
5413;BME280;2729;50.056;8.678;2023-03-26T02:00:18;99585.22;;;10.19;100.00
5413;BME280;2729;50.056;8.678;2023-03-26T02:06:22;99581.84;;;9.91;100.00
5413;BME280;2729;50.056;8.678;2023-03-26T02:08:56;99582.06;;;10.10;100.00
5413;BME280;2729;50.056;8.678;2023-03-26T02:11:23;99582.06;;;10.10;100.00
5413;BME280;2729;50.056;8.678;2023-03-26T02:13:49;99571.75;;;10.07;100.00
5413;BME280;2729;50.056;8.678;2023-03-26T02:16:16;99565.03;;;10.26;100.00
5413;BME280;2729;50.056;8.678;2023-03-26T02:18:45;99562.22;;;10.32;100.00
5413;BME280;2729;50.056;8.678;2023-03-26T02:21:15;99551.84;;;10.30;100.00
5413;BME280;2729;50.056;8.678;2023-03-26T02:23:46;99555.78;;;10.42;100.00
5413;BME280;2729;50.056;8.678;2023-03-26T02:26:14;99553.75;;;10.50;100.00
5413;BME280;2729;50.056;8.678;2023-03-26T02:28:54;99553.66;;;10.53;100.00
5413;BME280;2729;50.056;8.678;2023-03-26T02:31:21;99553.25;;;10.41;100.00
5413;BME280;2729;50.056;8.678;2023-03-26T02:33:51;99538.50;;;10.38;100.00
5413;BME280;2729;50.056;8.678;2023-03-26T02:36:18;99541.72;;;10.46;100.00
5413;BME280;2729;50.056;8.678;2023-03-26T02:38:46;99535.84;;;10.40;100.00
5413;BME280;2729;50.056;8.678;2023-03-26T02:41:14;99538.50;;;10.38;100.00
5413;BME280;2729;50.056;8.678;2023-03-26T02:43:52;99529.22;;;10.31;100.00
5413;BME280;2729;50.056;8.678;2023-03-26T02:46:21;99530.50;;;10.44;100.00
5413;BME280;2729;50.056;8.678;2023-03-26T02:48:56;99523.88;;;10.34;100.00
5413;BME280;2729;50.056;8.678;2023-03-26T02:51:24;99526.53;;;10.32;100.00
5413;BME280;2729;50.056;8.678;2023-03-26T02:54:12;99519.47;;;10.36;100.00
5413;BME280;2729;50.056;8.678;2023-03-26T02:57:01;99518.34;;;10.18;100.00
5413;BME280;2729;50.056;8.678;2023-03-26T02:59:50;99504.53;;;10.41;100.00
5413;BME280;2729;50.056;8.678;2023-03-26T03:02:40;99495.97;;;10.61;100.00
5413;BME280;2729;50.056;8.678;2023-03-26T03:05:32;99504.19;;;10.50;100.00
5413;BME280;2729;50.056;8.678;2023-03-26T03:08:22;99508.78;;;10.44;100.00
5413;BME280;2729;50.056;8.678;2023-03-26T03:11:20;99502.50;;;10.49;100.00
5413;BME280;2729;50.056;8.678;2023-03-26T03:13:49;99493.88;;;10.47;100.00
5413;BME280;2729;50.056;8.678;2023-03-26T03:16:22;99488.66;;;10.47;100.00
5413;BME280;2729;50.056;8.678;2023-03-26T03:18:48;99486.44;;;10.60;100.00
5413;BME280;2729;50.056;8.678;2023-03-26T03:21:24;99488.75;;;10.44;100.00
5413;BME280;2729;50.056;8.678;2023-03-26T03:23:50;99493.88;;;10.47;100.00
5413;BME280;2729;50.056;8.678;2023-03-26T03:26:18;99486.50;;;10.58;100.00
5413;BME280;2729;50.056;8.678;2023-03-26T03:28:53;99481.78;;;10.45;100.00
5413;BME280;2729;50.056;8.678;2023-03-26T03:31:21;99482.09;;;10.36;100.00
5413;BME280;2729;50.056;8.678;2023-03-26T03:33:47;99466.28;;;10.63;100.00
5413;BME280;2729;50.056;8.678;2023-03-26T03:36:18;99470.78;;;10.60;100.00
5413;BME280;2729;50.056;8.678;2023-03-26T03:38:48;99461.44;;;10.76;100.00
5413;BME280;2729;50.056;8.678;2023-03-26T03:41:18;99469.47;;;10.72;100.00
5413;BME280;2729;50.056;8.678;2023-03-26T03:43:45;99468.50;;;10.51;100.00
5413;BME280;2729;50.056;8.678;2023-03-26T03:46:15;99462.94;;;10.60;100.00
5413;BME280;2729;50.056;8.678;2023-03-26T03:48:48;99459.59;;;10.56;100.00
5413;BME280;2729;50.056;8.678;2023-03-26T03:51:17;99461.50;;;10.28;100.00
5413;BME280;2729;50.056;8.678;2023-03-26T03:53:49;99465.00;;;10.52;100.00
5413;BME280;2729;50.056;8.678;2023-03-26T03:56:25;99447.66;;;10.73;100.00
5413;BME280;2729;50.056;8.678;2023-03-26T03:59:14;99445.66;;;10.57;100.00
5413;BME280;2729;50.056;8.678;2023-03-26T04:01:41;99442.25;;;10.55;100.00
5413;BME280;2729;50.056;8.678;2023-03-26T04:04:22;99437.31;;;10.48;100.00
5413;BME280;2729;50.056;8.678;2023-03-26T04:06:59;99426.16;;;10.44;100.00
5413;BME280;2729;50.056;8.678;2023-03-26T04:09:32;99433.88;;;10.47;100.00
5413;BME280;2729;50.056;8.678;2023-03-26T04:12:03;99425.38;;;10.42;100.00
5413;BME280;2729;50.056;8.678;2023-03-26T04:14:38;99426.47;;;10.35;100.00
5413;BME280;2729;50.056;8.678;2023-03-26T04:17:16;99428.91;;;10.40;100.00
5413;BME280;2729;50.056;8.678;2023-03-26T04:19:44;99430.59;;;10.42;100.00
5413;BME280;2729;50.056;8.678;2023-03-26T04:22:12;99425.56;;;10.36;100.00
5413;BME280;2729;50.056;8.678;2023-03-26T04:24:52;99414.03;;;10.43;100.00
5413;BME280;2729;50.056;8.678;2023-03-26T04:27:31;99407.78;;;10.47;100.00
5413;BME280;2729;50.056;8.678;2023-03-26T04:30:27;99405.50;;;10.38;100.00
5413;BME280;2729;50.056;8.678;2023-03-26T04:33:03;99410.50;;;10.19;100.00
5413;BME280;2729;50.056;8.678;2023-03-26T04:35:34;99400.06;;;10.21;100.00
5413;BME280;2729;50.056;8.678;2023-03-26T04:38:02;99398.50;;;10.39;100.00
5413;BME280;2729;50.056;8.678;2023-03-26T04:40:36;99384.97;;;10.29;100.00
5413;BME280;2729;50.056;8.678;2023-03-26T04:43:25;99385.44;;;10.40;100.00
5413;BME280;2729;50.056;8.678;2023-03-26T04:46:08;99369.63;;;10.21;100.00
5413;BME280;2729;50.056;8.678;2023-03-26T04:48:40;99367.38;;;10.11;100.00
5413;BME280;2729;50.056;8.678;2023-03-26T04:51:08;99366.16;;;10.21;100.00
5413;BME280;2729;50.056;8.678;2023-03-26T04:53:51;99358.66;;;10.12;100.00
5413;BME280;2729;50.056;8.678;2023-03-26T04:56:48;99358.16;;;10.02;100.00
5413;BME280;2729;50.056;8.678;2023-03-26T04:59:29;99351.63;;;10.14;100.00
5413;BME280;2729;50.056;8.678;2023-03-26T05:02:02;99352.09;;;10.02;100.00
5413;BME280;2729;50.056;8.678;2023-03-26T05:04:34;99355.88;;;10.16;100.00
5413;BME280;2729;50.056;8.678;2023-03-26T05:07:01;99350.41;;;10.24;100.00
5413;BME280;2729;50.056;8.678;2023-03-26T05:09:40;99347.09;;;10.19;100.00
5413;BME280;2729;50.056;8.678;2023-03-26T05:12:11;99335.78;;;9.96;100.00
5413;BME280;2729;50.056;8.678;2023-03-26T05:14:51;99324.63;;;9.70;100.00
5413;BME280;2729;50.056;8.678;2023-03-26T05:17:27;99305.41;;;9.72;100.00
5413;BME280;2729;50.056;8.678;2023-03-26T05:19:56;99302.47;;;9.81;100.00
5413;BME280;2729;50.056;8.678;2023-03-26T05:22:22;99311.97;;;9.59;100.00
5413;BME280;2729;50.056;8.678;2023-03-26T05:25:10;99310.56;;;9.74;100.00
5413;BME280;2729;50.056;8.678;2023-03-26T05:27:37;99307.66;;;10.05;100.00
5413;BME280;2729;50.056;8.678;2023-03-26T05:30:03;99294.63;;;10.05;100.00
5413;BME280;2729;50.056;8.678;2023-03-26T05:32:36;99284.50;;;10.19;100.00
5413;BME280;2729;50.056;8.678;2023-03-26T05:35:03;99282.53;;;10.25;100.00
5413;BME280;2729;50.056;8.678;2023-03-26T05:37:30;99275.63;;;10.24;100.00
5413;BME280;2729;50.056;8.678;2023-03-26T05:40:04;99269.06;;;10.36;100.00
5413;BME280;2729;50.056;8.678;2023-03-26T05:42:46;99264.16;;;10.28;100.00
5413;BME280;2729;50.056;8.678;2023-03-26T05:45:27;99263.13;;;10.32;100.00
5413;BME280;2729;50.056;8.678;2023-03-26T05:47:53;99258.97;;;10.05;100.00
5413;BME280;2729;50.056;8.678;2023-03-26T05:50:24;99240.16;;;9.75;100.00
5413;BME280;2729;50.056;8.678;2023-03-26T05:52:53;99242.88;;;9.72;100.00
5413;BME280;2729;50.056;8.678;2023-03-26T05:55:48;99257.59;;;9.73;100.00
5413;BME280;2729;50.056;8.678;2023-03-26T05:59:00;99257.66;;;10.17;100.00
5413;BME280;2729;50.056;8.678;2023-03-26T06:01:45;99251.69;;;10.13;100.00
5413;BME280;2729;50.056;8.678;2023-03-26T06:04:27;99249.34;;;10.07;100.00
5413;BME280;2729;50.056;8.678;2023-03-26T06:07:12;99243.31;;;10.28;100.00
5413;BME280;2729;50.056;8.678;2023-03-26T06:09:42;99239.38;;;10.17;100.00
5413;BME280;2729;50.056;8.678;2023-03-26T06:12:09;99232.88;;;10.28;100.00
5413;BME280;2729;50.056;8.678;2023-03-26T06:14:36;99226.22;;;10.43;100.00
5413;BME280;2729;50.056;8.678;2023-03-26T06:17:12;99222.75;;;10.43;100.00
5413;BME280;2729;50.056;8.678;2023-03-26T06:20:01;99211.53;;;10.41;100.00
5413;BME280;2729;50.056;8.678;2023-03-26T06:22:35;99200.53;;;10.32;100.00
5413;BME280;2729;50.056;8.678;2023-03-26T06:25:30;99200.78;;;10.26;100.00
5413;BME280;2729;50.056;8.678;2023-03-26T06:28:18;99201.13;;;10.39;100.00
5413;BME280;2729;50.056;8.678;2023-03-26T06:30:59;99191.59;;;10.38;100.00
5413;BME280;2729;50.056;8.678;2023-03-26T06:33:31;99185.47;;;10.39;100.00
5413;BME280;2729;50.056;8.678;2023-03-26T06:35:59;99183.78;;;10.38;100.00
5413;BME280;2729;50.056;8.678;2023-03-26T06:38:26;99180.38;;;10.58;100.00
5413;BME280;2729;50.056;8.678;2023-03-26T06:40:53;99171.09;;;10.51;100.00
5413;BME280;2729;50.056;8.678;2023-03-26T06:43:25;99174.63;;;10.50;100.00
5413;BME280;2729;50.056;8.678;2023-03-26T06:46:23;99167.13;;;10.62;100.00
5413;BME280;2729;50.056;8.678;2023-03-26T06:49:13;99171.38;;;10.65;100.00
5413;BME280;2729;50.056;8.678;2023-03-26T06:51:55;99163.22;;;10.73;100.00
5413;BME280;2729;50.056;8.678;2023-03-26T06:54:48;99167.25;;;10.80;100.00
5413;BME280;2729;50.056;8.678;2023-03-26T06:57:33;99164.63;;;10.80;100.00
5413;BME280;2729;50.056;8.678;2023-03-26T07:00:19;99159.88;;;10.89;100.00
5413;BME280;2729;50.056;8.678;2023-03-26T07:03:04;99163.97;;;10.95;100.00
5413;BME280;2729;50.056;8.678;2023-03-26T07:05:48;99168.50;;;11.10;100.00
5413;BME280;2729;50.056;8.678;2023-03-26T07:08:35;99156.91;;;10.97;100.00
5413;BME280;2729;50.056;8.678;2023-03-26T07:11:33;99166.81;;;11.09;100.00
5413;BME280;2729;50.056;8.678;2023-03-26T07:14:11;99155.59;;;11.07;100.00
5413;BME280;2729;50.056;8.678;2023-03-26T07:16:37;99152.56;;;11.16;100.00
5413;BME280;2729;50.056;8.678;2023-03-26T07:19:15;99153.97;;;11.05;100.00
5413;BME280;2729;50.056;8.678;2023-03-26T07:21:42;99153.09;;;11.04;100.00
5413;BME280;2729;50.056;8.678;2023-03-26T07:24:28;99148.94;;;11.00;100.00
5413;BME280;2729;50.056;8.678;2023-03-26T07:27:55;99144.91;;;10.93;100.00
5413;BME280;2729;50.056;8.678;2023-03-26T07:30:03;99143.94;;;11.14;100.00
5413;BME280;2729;50.056;8.678;2023-03-26T07:33:06;99130.75;;;11.17;100.00
5413;BME280;2729;50.056;8.678;2023-03-26T07:36:16;99128.34;;;10.94;100.00
5413;BME280;2729;50.056;8.678;2023-03-26T07:39:13;99129.53;;;11.06;100.00
5413;BME280;2729;50.056;8.678;2023-03-26T07:42:33;99122.50;;;11.08;100.00
5413;BME280;2729;50.056;8.678;2023-03-26T07:45:42;99114.66;;;11.08;100.00
5413;BME280;2729;50.056;8.678;2023-03-26T07:48:38;99104.72;;;11.16;100.00
5413;BME280;2729;50.056;8.678;2023-03-26T07:51:12;99106.59;;;11.12;100.00
5413;BME280;2729;50.056;8.678;2023-03-26T07:53:57;99101.38;;;11.12;100.00
5413;BME280;2729;50.056;8.678;2023-03-26T07:56:58;99093.28;;;11.00;100.00
5413;BME280;2729;50.056;8.678;2023-03-26T08:06:04;99074.22;;;11.16;100.00
5413;BME280;2729;50.056;8.678;2023-03-26T08:09:19;99079.44;;;11.16;100.00
5413;BME280;2729;50.056;8.678;2023-03-26T08:15:20;99071.09;;;11.27;100.00
5413;BME280;2729;50.056;8.678;2023-03-26T08:20:39;99064.75;;;11.33;100.00
5413;BME280;2729;50.056;8.678;2023-03-26T08:23:22;99064.03;;;11.29;100.00
5413;BME280;2729;50.056;8.678;2023-03-26T08:26:14;99069.97;;;11.33;100.00
5413;BME280;2729;50.056;8.678;2023-03-26T08:31:26;99069.19;;;11.31;100.00
5413;BME280;2729;50.056;8.678;2023-03-26T08:33:53;99073.00;;;11.23;100.00
5413;BME280;2729;50.056;8.678;2023-03-26T08:36:19;99073.84;;;11.43;100.00
5413;BME280;2729;50.056;8.678;2023-03-26T08:38:45;99066.06;;;11.41;100.00
5413;BME280;2729;50.056;8.678;2023-03-26T08:52:20;99064.06;;;11.46;100.00
5413;BME280;2729;50.056;8.678;2023-03-26T08:55:02;99064.16;;;11.45;100.00
5413;BME280;2729;50.056;8.678;2023-03-26T09:00:34;99063.03;;;11.32;100.00
5413;BME280;2729;50.056;8.678;2023-03-26T09:03:13;99060.50;;;11.30;100.00
5413;BME280;2729;50.056;8.678;2023-03-26T09:05:57;99043.56;;;11.39;100.00
5413;BME280;2729;50.056;8.678;2023-03-26T09:08:46;99037.88;;;11.48;100.00
5413;BME280;2729;50.056;8.678;2023-03-26T09:11:32;99036.66;;;11.55;100.00
5413;BME280;2729;50.056;8.678;2023-03-26T09:14:16;99027.59;;;11.62;100.00
5413;BME280;2729;50.056;8.678;2023-03-26T09:17:16;99024.03;;;11.46;100.00
5413;BME280;2729;50.056;8.678;2023-03-26T09:22:52;99040.00;;;11.40;100.00
5413;BME280;2729;50.056;8.678;2023-03-26T09:28:44;99030.41;;;11.40;100.00
5413;BME280;2729;50.056;8.678;2023-03-26T09:34:27;99009.66;;;11.37;100.00
5413;BME280;2729;50.056;8.678;2023-03-26T09:39:41;99016.56;;;11.38;100.00
5413;BME280;2729;50.056;8.678;2023-03-26T09:42:42;99011.78;;;11.29;100.00
5413;BME280;2729;50.056;8.678;2023-03-26T09:45:25;99007.72;;;11.23;100.00
5413;BME280;2729;50.056;8.678;2023-03-26T09:48:18;98993.59;;;11.27;100.00
5413;BME280;2729;50.056;8.678;2023-03-26T09:51:26;98993.28;;;11.34;100.00
5413;BME280;2729;50.056;8.678;2023-03-26T10:13:53;98985.25;;;11.73;100.00
5413;BME280;2729;50.056;8.678;2023-03-26T10:16:41;98981.50;;;11.96;100.00
5413;BME280;2729;50.056;8.678;2023-03-26T10:19:22;98977.88;;;11.98;100.00
5413;BME280;2729;50.056;8.678;2023-03-26T10:30:27;98954.72;;;12.56;100.00
5413;BME280;2729;50.056;8.678;2023-03-26T10:33:19;98942.59;;;12.22;100.00
5413;BME280;2729;50.056;8.678;2023-03-26T10:39:06;98928.78;;;12.99;100.00
5413;BME280;2729;50.056;8.678;2023-03-26T10:41:46;98933.03;;;13.17;100.00
5413;BME280;2729;50.056;8.678;2023-03-26T10:44:34;98921.09;;;13.58;100.00
5413;BME280;2729;50.056;8.678;2023-03-26T10:50:18;98915.59;;;13.76;100.00
5413;BME280;2729;50.056;8.678;2023-03-26T10:53:10;98924.75;;;13.69;100.00
5413;BME280;2729;50.056;8.678;2023-03-26T10:55:41;98919.63;;;13.82;100.00
5413;BME280;2729;50.056;8.678;2023-03-26T10:58:22;98918.78;;;13.81;100.00
5413;BME280;2729;50.056;8.678;2023-03-26T11:00:54;98918.66;;;13.25;100.00
5413;BME280;2729;50.056;8.678;2023-03-26T11:03:41;98912.88;;;13.64;100.00
5413;BME280;2729;50.056;8.678;2023-03-26T11:06:27;98908.78;;;13.88;100.00
5413;BME280;2729;50.056;8.678;2023-03-26T11:12:01;98901.25;;;13.24;100.00
5413;BME280;2729;50.056;8.678;2023-03-26T11:17:57;98885.53;;;13.68;100.00
5413;BME280;2729;50.056;8.678;2023-03-26T11:23:36;98884.03;;;13.92;100.00
5413;BME280;2729;50.056;8.678;2023-03-26T11:26:29;98880.84;;;13.59;100.00
5413;BME280;2729;50.056;8.678;2023-03-26T11:29:41;98886.97;;;12.98;100.00
5413;BME280;2729;50.056;8.678;2023-03-26T11:32:13;98894.50;;;13.04;100.00
5413;BME280;2729;50.056;8.678;2023-03-26T11:37:45;98897.47;;;12.50;100.00
5413;BME280;2729;50.056;8.678;2023-03-26T11:40:26;98899.41;;;12.47;100.00
5413;BME280;2729;50.056;8.678;2023-03-26T11:42:58;98902.09;;;12.77;100.00
5413;BME280;2729;50.056;8.678;2023-03-26T11:45:27;98897.97;;;12.73;100.00
5413;BME280;2729;50.056;8.678;2023-03-26T11:48:22;98899.22;;;12.97;100.00
5413;BME280;2729;50.056;8.678;2023-03-26T11:50:57;98896.66;;;13.57;100.00
5413;BME280;2729;50.056;8.678;2023-03-26T11:53:28;98882.34;;;13.91;100.00
5413;BME280;2729;50.056;8.678;2023-03-26T11:56:04;98863.03;;;14.35;100.00
5413;BME280;2729;50.056;8.678;2023-03-26T11:59:04;98858.81;;;14.18;100.00
5413;BME280;2729;50.056;8.678;2023-03-26T12:01:46;98850.94;;;14.18;100.00
5413;BME280;2729;50.056;8.678;2023-03-26T12:04:24;98846.81;;;14.42;100.00
5413;BME280;2729;50.056;8.678;2023-03-26T12:06:54;98848.16;;;13.93;100.00
5413;BME280;2729;50.056;8.678;2023-03-26T12:09:21;98853.88;;;13.71;100.00
5413;BME280;2729;50.056;8.678;2023-03-26T12:11:52;98856.41;;;14.01;100.00
5413;BME280;2729;50.056;8.678;2023-03-26T12:14:25;98867.09;;;13.83;100.00
5413;BME280;2729;50.056;8.678;2023-03-26T12:17:06;98873.59;;;13.48;100.00
5413;BME280;2729;50.056;8.678;2023-03-26T12:19:39;98868.69;;;13.28;100.00
5413;BME280;2729;50.056;8.678;2023-03-26T12:22:26;98877.75;;;13.06;100.00
5413;BME280;2729;50.056;8.678;2023-03-26T12:27:49;98885.28;;;12.81;100.00
5413;BME280;2729;50.056;8.678;2023-03-26T12:30:26;98876.84;;;13.07;100.00
5413;BME280;2729;50.056;8.678;2023-03-26T12:32:59;98861.03;;;13.09;100.00
5413;BME280;2729;50.056;8.678;2023-03-26T12:35:33;98850.38;;;13.42;100.00
5413;BME280;2729;50.056;8.678;2023-03-26T12:38:28;98864.75;;;13.05;100.00
5413;BME280;2729;50.056;8.678;2023-03-26T12:41:12;98840.53;;;13.31;100.00
5413;BME280;2729;50.056;8.678;2023-03-26T12:43:44;98844.88;;;13.46;100.00
5413;BME280;2729;50.056;8.678;2023-03-26T12:46:26;98845.72;;;13.47;100.00
5413;BME280;2729;50.056;8.678;2023-03-26T12:48:53;98834.22;;;13.64;100.00
5413;BME280;2729;50.056;8.678;2023-03-26T12:51:53;98832.53;;;13.91;100.00
5413;BME280;2729;50.056;8.678;2023-03-26T12:57:21;98812.19;;;14.50;100.00
5413;BME280;2729;50.056;8.678;2023-03-26T13:00:03;98815.06;;;14.60;100.00
5413;BME280;2729;50.056;8.678;2023-03-26T13:03:10;98810.03;;;14.96;100.00
5413;BME280;2729;50.056;8.678;2023-03-26T13:05:59;98799.16;;;14.75;100.00
5413;BME280;2729;50.056;8.678;2023-03-26T13:15:29;98796.81;;;15.10;100.00
5413;BME280;2729;50.056;8.678;2023-03-26T13:18:10;98797.03;;;15.33;100.00
5413;BME280;2729;50.056;8.678;2023-03-26T13:20:48;98790.34;;;14.76;100.00
5413;BME280;2729;50.056;8.678;2023-03-26T13:26:01;98792.03;;;14.90;100.00
5413;BME280;2729;50.056;8.678;2023-03-26T13:28:52;98785.28;;;14.73;100.00
5413;BME280;2729;50.056;8.678;2023-03-26T13:31:52;98775.91;;;15.09;100.00
5413;BME280;2729;50.056;8.678;2023-03-26T13:37:15;98774.16;;;14.02;100.00
5413;BME280;2729;50.056;8.678;2023-03-26T13:40:09;98779.69;;;13.97;100.00
5413;BME280;2729;50.056;8.678;2023-03-26T13:42:48;98771.81;;;13.97;100.00
5413;BME280;2729;50.056;8.678;2023-03-26T13:45:57;98781.06;;;14.03;100.00
5413;BME280;2729;50.056;8.678;2023-03-26T13:48:29;98767.53;;;13.82;100.00
5413;BME280;2729;50.056;8.678;2023-03-26T13:51:09;98767.56;;;14.09;100.00
5413;BME280;2729;50.056;8.678;2023-03-26T13:54:27;98761.38;;;14.10;100.00
5413;BME280;2729;50.056;8.678;2023-03-26T13:56:45;98752.22;;;14.44;100.00
5413;BME280;2729;50.056;8.678;2023-03-26T13:59:20;98758.47;;;14.14;100.00
5413;BME280;2729;50.056;8.678;2023-03-26T14:01:53;98791.13;;;13.39;100.00
5413;BME280;2729;50.056;8.678;2023-03-26T14:04:28;98798.00;;;12.96;100.00
5413;BME280;2729;50.056;8.678;2023-03-26T14:07:02;98789.97;;;12.99;100.00
5413;BME280;2729;50.056;8.678;2023-03-26T14:12:31;98783.63;;;13.19;100.00
5413;BME280;2729;50.056;8.678;2023-03-26T14:15:01;98774.94;;;13.33;100.00
5413;BME280;2729;50.056;8.678;2023-03-26T14:17:44;98768.38;;;13.54;100.00
5413;BME280;2729;50.056;8.678;2023-03-26T14:20:35;98764.47;;;14.16;100.00
5413;BME280;2729;50.056;8.678;2023-03-26T14:37:31;98757.03;;;14.23;100.00
5413;BME280;2729;50.056;8.678;2023-03-26T14:40:47;98745.53;;;14.38;100.00
5413;BME280;2729;50.056;8.678;2023-03-26T14:46:17;98738.69;;;14.50;100.00
5413;BME280;2729;50.056;8.678;2023-03-26T14:49:08;98734.59;;;14.46;100.00
5413;BME280;2729;50.056;8.678;2023-03-26T14:54:22;98708.22;;;14.47;100.00
5413;BME280;2729;50.056;8.678;2023-03-26T14:59:47;98708.56;;;14.56;100.00
5413;BME280;2729;50.056;8.678;2023-03-26T15:05:36;98693.59;;;14.83;100.00
5413;BME280;2729;50.056;8.678;2023-03-26T15:08:55;98699.47;;;14.74;100.00
5413;BME280;2729;50.056;8.678;2023-03-26T15:11:52;98702.72;;;14.77;100.00
5413;BME280;2729;50.056;8.678;2023-03-26T15:15:03;98694.63;;;14.80;98.99
5413;BME280;2729;50.056;8.678;2023-03-26T15:17:55;98702.84;;;15.01;95.22
5413;BME280;2729;50.056;8.678;2023-03-26T15:21:07;98693.16;;;14.89;81.95
5413;BME280;2729;50.056;8.678;2023-03-26T15:29:09;98695.28;;;15.09;83.49
5413;BME280;2729;50.056;8.678;2023-03-26T15:31:48;98683.41;;;15.04;85.23
5413;BME280;2729;50.056;8.678;2023-03-26T15:40:20;98718.19;;;14.42;77.91
5413;BME280;2729;50.056;8.678;2023-03-26T15:43:07;98708.50;;;14.83;91.74
5413;BME280;2729;50.056;8.678;2023-03-26T15:45:37;98725.53;;;14.90;98.24
5413;BME280;2729;50.056;8.678;2023-03-26T15:50:54;98743.97;;;14.36;95.90
5413;BME280;2729;50.056;8.678;2023-03-26T15:53:56;98752.59;;;14.38;98.51
5413;BME280;2729;50.056;8.678;2023-03-26T15:59:39;98800.22;;;13.48;100.00
5413;BME280;2729;50.056;8.678;2023-03-26T16:02:25;98846.31;;;12.61;100.00
5413;BME280;2729;50.056;8.678;2023-03-26T16:04:59;98862.22;;;11.93;100.00
5413;BME280;2729;50.056;8.678;2023-03-26T16:10:32;98876.59;;;11.00;100.00
5413;BME280;2729;50.056;8.678;2023-03-26T16:15:54;98880.69;;;10.69;100.00
5413;BME280;2729;50.056;8.678;2023-03-26T16:18:34;98886.03;;;10.66;100.00
5413;BME280;2729;50.056;8.678;2023-03-26T16:29:17;98866.50;;;10.75;100.00
5413;BME280;2729;50.056;8.678;2023-03-26T16:32:04;98869.53;;;11.19;100.00
5413;BME280;2729;50.056;8.678;2023-03-26T16:34:51;98879.13;;;11.18;100.00
5413;BME280;2729;50.056;8.678;2023-03-26T16:50:52;98880.16;;;10.80;100.00
5413;BME280;2729;50.056;8.678;2023-03-26T16:56:14;98872.81;;;11.05;100.00
5413;BME280;2729;50.056;8.678;2023-03-26T16:58:53;98877.38;;;10.66;100.00
5413;BME280;2729;50.056;8.678;2023-03-26T17:01:23;98870.44;;;11.01;100.00
5413;BME280;2729;50.056;8.678;2023-03-26T17:04:12;98878.50;;;10.96;100.00
5413;BME280;2729;50.056;8.678;2023-03-26T17:09:33;98871.69;;;11.11;100.00
5413;BME280;2729;50.056;8.678;2023-03-26T17:12:11;98870.97;;;11.07;100.00
5413;BME280;2729;50.056;8.678;2023-03-26T17:17:28;98883.81;;;11.12;100.00
5413;BME280;2729;50.056;8.678;2023-03-26T17:20:03;98881.47;;;10.88;100.00
5413;BME280;2729;50.056;8.678;2023-03-26T17:25:36;98881.59;;;11.04;100.00
5413;BME280;2729;50.056;8.678;2023-03-26T17:28:50;98887.41;;;10.92;100.00
5413;BME280;2729;50.056;8.678;2023-03-26T17:31:25;98889.72;;;10.98;100.00